sensor_id;sensor_type;location;lat;lon;timestamp;P1;durP1;ratioP1;P2;durP2;ratioP2
65533;SDS011;53640;55.838;37.184;2023-04-25T00:02:09;6.75;;;3.55;;
65533;SDS011;53640;55.838;37.184;2023-04-25T00:04:36;3.55;;;2.70;;
65533;SDS011;53640;55.838;37.184;2023-04-25T00:07:03;3.17;;;2.80;;
65533;SDS011;53640;55.838;37.184;2023-04-25T00:09:31;5.85;;;3.15;;
65533;SDS011;53640;55.838;37.184;2023-04-25T00:11:58;8.35;;;4.10;;
65533;SDS011;53640;55.838;37.184;2023-04-25T00:14:24;6.28;;;3.88;;
65533;SDS011;53640;55.838;37.184;2023-04-25T00:16:51;7.20;;;3.72;;
65533;SDS011;53640;55.838;37.184;2023-04-25T00:19:17;7.43;;;3.42;;
65533;SDS011;53640;55.838;37.184;2023-04-25T00:21:44;6.40;;;4.15;;
65533;SDS011;53640;55.838;37.184;2023-04-25T00:24:12;5.93;;;3.55;;
65533;SDS011;53640;55.838;37.184;2023-04-25T00:26:38;5.72;;;3.53;;
65533;SDS011;53640;55.838;37.184;2023-04-25T00:29:05;4.68;;;3.30;;
65533;SDS011;53640;55.838;37.184;2023-04-25T00:31:31;8.20;;;4.30;;
65533;SDS011;53640;55.838;37.184;2023-04-25T00:33:58;7.97;;;4.38;;
65533;SDS011;53640;55.838;37.184;2023-04-25T00:36:25;8.40;;;4.32;;
65533;SDS011;53640;55.838;37.184;2023-04-25T00:38:52;8.27;;;4.25;;
65533;SDS011;53640;55.838;37.184;2023-04-25T00:41:19;10.23;;;4.57;;
65533;SDS011;53640;55.838;37.184;2023-04-25T00:43:47;9.27;;;4.25;;
65533;SDS011;53640;55.838;37.184;2023-04-25T00:46:15;7.47;;;4.28;;
65533;SDS011;53640;55.838;37.184;2023-04-25T00:48:41;11.30;;;4.70;;
65533;SDS011;53640;55.838;37.184;2023-04-25T00:51:08;8.05;;;4.10;;
65533;SDS011;53640;55.838;37.184;2023-04-25T00:53:38;9.20;;;4.65;;
65533;SDS011;53640;55.838;37.184;2023-04-25T00:56:05;7.97;;;4.57;;
65533;SDS011;53640;55.838;37.184;2023-04-25T00:58:32;8.65;;;4.45;;
65533;SDS011;53640;55.838;37.184;2023-04-25T01:00:58;9.48;;;4.55;;
65533;SDS011;53640;55.838;37.184;2023-04-25T01:03:26;9.43;;;4.00;;
65533;SDS011;53640;55.838;37.184;2023-04-25T01:05:54;10.93;;;4.57;;
65533;SDS011;53640;55.838;37.184;2023-04-25T01:08:21;8.35;;;4.20;;
65533;SDS011;53640;55.838;37.184;2023-04-25T01:10:51;6.93;;;3.95;;
65533;SDS011;53640;55.838;37.184;2023-04-25T01:13:17;6.32;;;3.65;;
65533;SDS011;53640;55.838;37.184;2023-04-25T01:15:44;9.18;;;4.60;;
65533;SDS011;53640;55.838;37.184;2023-04-25T01:18:10;12.80;;;4.40;;
65533;SDS011;53640;55.838;37.184;2023-04-25T01:20:37;8.50;;;4.38;;
65533;SDS011;53640;55.838;37.184;2023-04-25T01:23:05;10.25;;;4.00;;
65533;SDS011;53640;55.838;37.184;2023-04-25T01:25:32;7.07;;;4.03;;
65533;SDS011;53640;55.838;37.184;2023-04-25T01:27:59;7.35;;;4.18;;
65533;SDS011;53640;55.838;37.184;2023-04-25T01:30:27;9.15;;;4.85;;
65533;SDS011;53640;55.838;37.184;2023-04-25T01:32:54;6.10;;;3.47;;
65533;SDS011;53640;55.838;37.184;2023-04-25T01:35:22;11.00;;;4.22;;
65533;SDS011;53640;55.838;37.184;2023-04-25T01:37:53;8.88;;;4.53;;
65533;SDS011;53640;55.838;37.184;2023-04-25T01:40:20;10.70;;;4.40;;
65533;SDS011;53640;55.838;37.184;2023-04-25T01:42:48;8.25;;;3.95;;
65533;SDS011;53640;55.838;37.184;2023-04-25T01:45:15;9.45;;;4.20;;
65533;SDS011;53640;55.838;37.184;2023-04-25T01:47:42;6.85;;;4.05;;
65533;SDS011;53640;55.838;37.184;2023-04-25T01:50:10;7.78;;;4.30;;
65533;SDS011;53640;55.838;37.184;2023-04-25T01:52:37;7.00;;;4.15;;
65533;SDS011;53640;55.838;37.184;2023-04-25T01:55:05;9.85;;;4.07;;
65533;SDS011;53640;55.838;37.184;2023-04-25T01:57:34;7.88;;;4.03;;
65533;SDS011;53640;55.838;37.184;2023-04-25T02:00:03;11.18;;;4.57;;
65533;SDS011;53640;55.838;37.184;2023-04-25T02:02:41;11.40;;;4.30;;
65533;SDS011;53640;55.838;37.184;2023-04-25T02:05:18;8.63;;;4.22;;
65533;SDS011;53640;55.838;37.184;2023-04-25T02:07:47;8.48;;;4.13;;
65533;SDS011;53640;55.838;37.184;2023-04-25T02:10:14;6.60;;;3.90;;
65533;SDS011;53640;55.838;37.184;2023-04-25T02:13:01;10.90;;;4.63;;
65533;SDS011;53640;55.838;37.184;2023-04-25T02:15:53;9.20;;;4.55;;
65533;SDS011;53640;55.838;37.184;2023-04-25T02:18:20;10.95;;;4.15;;
65533;SDS011;53640;55.838;37.184;2023-04-25T02:20:47;4.57;;;3.47;;
65533;SDS011;53640;55.838;37.184;2023-04-25T02:23:13;6.32;;;3.65;;
65533;SDS011;53640;55.838;37.184;2023-04-25T02:25:41;8.93;;;3.75;;
65533;SDS011;53640;55.838;37.184;2023-04-25T02:28:08;7.35;;;3.90;;
65533;SDS011;53640;55.838;37.184;2023-04-25T02:30:35;6.15;;;4.32;;
65533;SDS011;53640;55.838;37.184;2023-04-25T02:33:04;9.63;;;4.07;;
65533;SDS011;53640;55.838;37.184;2023-04-25T02:35:31;9.13;;;4.20;;
65533;SDS011;53640;55.838;37.184;2023-04-25T02:37:57;6.65;;;3.92;;
65533;SDS011;53640;55.838;37.184;2023-04-25T02:40:24;9.48;;;4.35;;
65533;SDS011;53640;55.838;37.184;2023-04-25T02:42:50;9.68;;;4.32;;
65533;SDS011;53640;55.838;37.184;2023-04-25T02:45:18;7.57;;;4.15;;
65533;SDS011;53640;55.838;37.184;2023-04-25T02:47:45;11.65;;;5.07;;
65533;SDS011;53640;55.838;37.184;2023-04-25T02:50:11;8.30;;;3.67;;
65533;SDS011;53640;55.838;37.184;2023-04-25T02:52:39;10.13;;;4.43;;
65533;SDS011;53640;55.838;37.184;2023-04-25T02:55:14;10.18;;;3.83;;
65533;SDS011;53640;55.838;37.184;2023-04-25T02:57:42;6.03;;;4.22;;
65533;SDS011;53640;55.838;37.184;2023-04-25T03:00:11;9.48;;;4.45;;
65533;SDS011;53640;55.838;37.184;2023-04-25T03:02:40;9.82;;;4.18;;
65533;SDS011;53640;55.838;37.184;2023-04-25T03:05:06;11.50;;;4.47;;
65533;SDS011;53640;55.838;37.184;2023-04-25T03:07:34;7.97;;;4.00;;
65533;SDS011;53640;55.838;37.184;2023-04-25T03:10:01;10.65;;;4.13;;
65533;SDS011;53640;55.838;37.184;2023-04-25T03:12:30;7.88;;;3.95;;
65533;SDS011;53640;55.838;37.184;2023-04-25T03:14:56;10.27;;;4.20;;
65533;SDS011;53640;55.838;37.184;2023-04-25T03:17:23;7.45;;;3.72;;
65533;SDS011;53640;55.838;37.184;2023-04-25T03:19:50;4.05;;;3.50;;
65533;SDS011;53640;55.838;37.184;2023-04-25T03:22:16;6.97;;;3.67;;
65533;SDS011;53640;55.838;37.184;2023-04-25T03:24:43;6.40;;;3.55;;
65533;SDS011;53640;55.838;37.184;2023-04-25T03:27:09;7.97;;;3.88;;
65533;SDS011;53640;55.838;37.184;2023-04-25T03:29:36;6.20;;;3.42;;
65533;SDS011;53640;55.838;37.184;2023-04-25T03:32:04;8.95;;;3.85;;
65533;SDS011;53640;55.838;37.184;2023-04-25T03:34:30;6.63;;;3.50;;
65533;SDS011;53640;55.838;37.184;2023-04-25T03:36:59;7.80;;;3.70;;
65533;SDS011;53640;55.838;37.184;2023-04-25T03:39:26;4.30;;;3.00;;
65533;SDS011;53640;55.838;37.184;2023-04-25T03:41:53;2.75;;;2.10;;
65533;SDS011;53640;55.838;37.184;2023-04-25T03:44:20;4.05;;;2.80;;
65533;SDS011;53640;55.838;37.184;2023-04-25T03:46:47;5.57;;;3.08;;
65533;SDS011;53640;55.838;37.184;2023-04-25T03:49:13;3.30;;;3.00;;
65533;SDS011;53640;55.838;37.184;2023-04-25T03:51:57;6.38;;;3.25;;
65533;SDS011;53640;55.838;37.184;2023-04-25T03:54:40;4.30;;;2.60;;
65533;SDS011;53640;55.838;37.184;2023-04-25T03:57:16;3.88;;;2.50;;
65533;SDS011;53640;55.838;37.184;2023-04-25T03:59:43;5.13;;;2.90;;
65533;SDS011;53640;55.838;37.184;2023-04-25T04:02:12;4.10;;;2.80;;
65533;SDS011;53640;55.838;37.184;2023-04-25T04:04:39;4.72;;;2.80;;
65533;SDS011;53640;55.838;37.184;2023-04-25T04:07:06;4.90;;;2.72;;
65533;SDS011;53640;55.838;37.184;2023-04-25T04:09:39;4.80;;;2.65;;
65533;SDS011;53640;55.838;37.184;2023-04-25T04:12:09;3.28;;;2.40;;
65533;SDS011;53640;55.838;37.184;2023-04-25T04:14:38;4.75;;;3.33;;
65533;SDS011;53640;55.838;37.184;2023-04-25T04:17:06;4.45;;;2.90;;
65533;SDS011;53640;55.838;37.184;2023-04-25T04:20:08;7.45;;;3.13;;
65533;SDS011;53640;55.838;37.184;2023-04-25T04:23:21;5.75;;;2.55;;
65533;SDS011;53640;55.838;37.184;2023-04-25T04:25:49;6.53;;;2.75;;
65533;SDS011;53640;55.838;37.184;2023-04-25T04:28:29;5.72;;;2.83;;
65533;SDS011;53640;55.838;37.184;2023-04-25T04:31:00;3.15;;;2.17;;
65533;SDS011;53640;55.838;37.184;2023-04-25T04:33:27;4.80;;;3.00;;
65533;SDS011;53640;55.838;37.184;2023-04-25T04:35:58;2.33;;;2.13;;
65533;SDS011;53640;55.838;37.184;2023-04-25T04:38:31;1.77;;;1.63;;
65533;SDS011;53640;55.838;37.184;2023-04-25T04:41:01;2.75;;;1.70;;
65533;SDS011;53640;55.838;37.184;2023-04-25T04:43:59;3.90;;;2.13;;
65533;SDS011;53640;55.838;37.184;2023-04-25T04:47:42;2.97;;;1.60;;
65533;SDS011;53640;55.838;37.184;2023-04-25T04:50:58;3.38;;;1.58;;
65533;SDS011;53640;55.838;37.184;2023-04-25T05:01:43;5.53;;;2.42;;
65533;SDS011;53640;55.838;37.184;2023-04-25T05:09:05;4.18;;;2.35;;
65533;SDS011;53640;55.838;37.184;2023-04-25T05:12:06;2.60;;;2.30;;
65533;SDS011;53640;55.838;37.184;2023-04-25T05:15:20;3.28;;;2.30;;
65533;SDS011;53640;55.838;37.184;2023-04-25T05:18:14;3.53;;;2.10;;
65533;SDS011;53640;55.838;37.184;2023-04-25T05:22:09;6.55;;;2.40;;
65533;SDS011;53640;55.838;37.184;2023-04-25T05:25:01;4.53;;;2.50;;
65533;SDS011;53640;55.838;37.184;2023-04-25T05:28:35;2.35;;;1.85;;
65533;SDS011;53640;55.838;37.184;2023-04-25T05:32:48;4.43;;;1.80;;
65533;SDS011;53640;55.838;37.184;2023-04-25T05:35:18;4.95;;;2.00;;
65533;SDS011;53640;55.838;37.184;2023-04-25T05:37:47;2.22;;;2.03;;
65533;SDS011;53640;55.838;37.184;2023-04-25T05:40:14;2.10;;;1.80;;
65533;SDS011;53640;55.838;37.184;2023-04-25T05:43:05;2.17;;;1.70;;
65533;SDS011;53640;55.838;37.184;2023-04-25T05:45:49;4.40;;;2.40;;
65533;SDS011;53640;55.838;37.184;2023-04-25T05:48:46;4.95;;;2.90;;
65533;SDS011;53640;55.838;37.184;2023-04-25T05:51:43;2.67;;;2.30;;
65533;SDS011;53640;55.838;37.184;2023-04-25T05:54:28;3.80;;;2.47;;
65533;SDS011;53640;55.838;37.184;2023-04-25T05:56:57;8.68;;;2.83;;
65533;SDS011;53640;55.838;37.184;2023-04-25T05:59:23;3.47;;;2.40;;
65533;SDS011;53640;55.838;37.184;2023-04-25T06:01:54;8.43;;;3.45;;
65533;SDS011;53640;55.838;37.184;2023-04-25T06:04:23;6.18;;;3.45;;
65533;SDS011;53640;55.838;37.184;2023-04-25T06:06:52;7.40;;;3.10;;
65533;SDS011;53640;55.838;37.184;2023-04-25T06:09:18;9.15;;;4.03;;
65533;SDS011;53640;55.838;37.184;2023-04-25T06:11:51;3.30;;;2.90;;
65533;SDS011;53640;55.838;37.184;2023-04-25T06:14:19;8.15;;;3.33;;
65533;SDS011;53640;55.838;37.184;2023-04-25T06:16:50;7.97;;;3.30;;
65533;SDS011;53640;55.838;37.184;2023-04-25T06:19:21;10.02;;;3.80;;
65533;SDS011;53640;55.838;37.184;2023-04-25T06:22:02;8.60;;;4.07;;
65533;SDS011;53640;55.838;37.184;2023-04-25T06:24:31;8.05;;;3.63;;
65533;SDS011;53640;55.838;37.184;2023-04-25T06:27:00;6.72;;;3.20;;
65533;SDS011;53640;55.838;37.184;2023-04-25T06:29:41;9.13;;;2.97;;
65533;SDS011;53640;55.838;37.184;2023-04-25T06:32:57;17.70;;;3.90;;
65533;SDS011;53640;55.838;37.184;2023-04-25T06:35:42;10.20;;;3.75;;
65533;SDS011;53640;55.838;37.184;2023-04-25T06:38:33;7.95;;;4.30;;
65533;SDS011;53640;55.838;37.184;2023-04-25T06:42:15;5.72;;;3.30;;
65533;SDS011;53640;55.838;37.184;2023-04-25T06:44:59;5.32;;;3.00;;
65533;SDS011;53640;55.838;37.184;2023-04-25T06:47:44;12.00;;;4.03;;
65533;SDS011;53640;55.838;37.184;2023-04-25T06:50:21;4.30;;;3.13;;
65533;SDS011;53640;55.838;37.184;2023-04-25T06:52:54;5.30;;;3.15;;
65533;SDS011;53640;55.838;37.184;2023-04-25T06:55:27;4.65;;;3.42;;
65533;SDS011;53640;55.838;37.184;2023-04-25T06:58:16;13.48;;;4.38;;
65533;SDS011;53640;55.838;37.184;2023-04-25T07:01:02;5.03;;;3.08;;
65533;SDS011;53640;55.838;37.184;2023-04-25T07:03:29;10.23;;;3.60;;
65533;SDS011;53640;55.838;37.184;2023-04-25T07:06:11;8.02;;;3.47;;
65533;SDS011;53640;55.838;37.184;2023-04-25T07:08:42;5.43;;;3.10;;
65533;SDS011;53640;55.838;37.184;2023-04-25T07:11:17;4.43;;;3.03;;
65533;SDS011;53640;55.838;37.184;2023-04-25T07:13:44;9.82;;;3.58;;
65533;SDS011;53640;55.838;37.184;2023-04-25T07:16:33;8.15;;;3.70;;
65533;SDS011;53640;55.838;37.184;2023-04-25T07:19:00;6.60;;;2.53;;
65533;SDS011;53640;55.838;37.184;2023-04-25T07:21:29;6.90;;;3.72;;
65533;SDS011;53640;55.838;37.184;2023-04-25T07:32:23;3.97;;;2.92;;
65533;SDS011;53640;55.838;37.184;2023-04-25T07:36:11;5.90;;;3.92;;
65533;SDS011;53640;55.838;37.184;2023-04-25T07:39:29;4.43;;;2.72;;
65533;SDS011;53640;55.838;37.184;2023-04-25T07:42:46;5.55;;;2.97;;
65533;SDS011;53640;55.838;37.184;2023-04-25T07:54:17;7.20;;;3.10;;
65533;SDS011;53640;55.838;37.184;2023-04-25T07:56:51;7.90;;;2.88;;
65533;SDS011;53640;55.838;37.184;2023-04-25T08:00:05;8.45;;;3.42;;
65533;SDS011;53640;55.838;37.184;2023-04-25T08:02:40;5.35;;;3.03;;
65533;SDS011;53640;55.838;37.184;2023-04-25T08:05:11;5.20;;;2.63;;
65533;SDS011;53640;55.838;37.184;2023-04-25T08:07:52;9.90;;;3.73;;
65533;SDS011;53640;55.838;37.184;2023-04-25T08:10:30;5.45;;;3.15;;
65533;SDS011;53640;55.838;37.184;2023-04-25T08:14:35;5.80;;;2.90;;
65533;SDS011;53640;55.838;37.184;2023-04-25T08:22:29;7.85;;;3.35;;
65533;SDS011;53640;55.838;37.184;2023-04-25T08:25:26;6.85;;;3.50;;
65533;SDS011;53640;55.838;37.184;2023-04-25T08:27:53;5.40;;;3.67;;
65533;SDS011;53640;55.838;37.184;2023-04-25T08:30:31;5.95;;;3.60;;
65533;SDS011;53640;55.838;37.184;2023-04-25T08:32:59;11.13;;;3.10;;
65533;SDS011;53640;55.838;37.184;2023-04-25T08:35:50;7.22;;;3.40;;
65533;SDS011;53640;55.838;37.184;2023-04-25T08:38:17;7.22;;;3.00;;
65533;SDS011;53640;55.838;37.184;2023-04-25T08:40:52;8.27;;;3.50;;
65533;SDS011;53640;55.838;37.184;2023-04-25T08:43:44;5.20;;;3.17;;
65533;SDS011;53640;55.838;37.184;2023-04-25T08:46:11;7.57;;;3.10;;
65533;SDS011;53640;55.838;37.184;2023-04-25T08:49:05;3.30;;;2.70;;
65533;SDS011;53640;55.838;37.184;2023-04-25T08:51:44;6.30;;;3.40;;
65533;SDS011;53640;55.838;37.184;2023-04-25T08:54:24;6.68;;;3.35;;
65533;SDS011;53640;55.838;37.184;2023-04-25T08:56:56;5.90;;;3.00;;
65533;SDS011;53640;55.838;37.184;2023-04-25T08:59:24;5.88;;;2.72;;
65533;SDS011;53640;55.838;37.184;2023-04-25T09:01:52;7.55;;;3.03;;
65533;SDS011;53640;55.838;37.184;2023-04-25T09:04:21;7.47;;;3.42;;
65533;SDS011;53640;55.838;37.184;2023-04-25T09:06:47;6.25;;;2.75;;
65533;SDS011;53640;55.838;37.184;2023-04-25T09:09:15;6.40;;;2.83;;
65533;SDS011;53640;55.838;37.184;2023-04-25T09:11:44;7.00;;;3.67;;
65533;SDS011;53640;55.838;37.184;2023-04-25T09:14:20;7.55;;;3.03;;
65533;SDS011;53640;55.838;37.184;2023-04-25T09:17:11;7.45;;;3.03;;
65533;SDS011;53640;55.838;37.184;2023-04-25T09:19:55;9.38;;;4.00;;
65533;SDS011;53640;55.838;37.184;2023-04-25T09:22:36;5.55;;;2.80;;
65533;SDS011;53640;55.838;37.184;2023-04-25T09:25:07;7.22;;;3.38;;
65533;SDS011;53640;55.838;37.184;2023-04-25T09:27:50;8.40;;;2.70;;
65533;SDS011;53640;55.838;37.184;2023-04-25T09:30:31;9.43;;;3.40;;
65533;SDS011;53640;55.838;37.184;2023-04-25T09:33:18;7.40;;;2.80;;
65533;SDS011;53640;55.838;37.184;2023-04-25T09:36:06;6.65;;;2.80;;
65533;SDS011;53640;55.838;37.184;2023-04-25T09:38:57;3.35;;;3.05;;
65533;SDS011;53640;55.838;37.184;2023-04-25T09:41:39;6.15;;;2.80;;
65533;SDS011;53640;55.838;37.184;2023-04-25T09:44:22;5.65;;;2.80;;
65533;SDS011;53640;55.838;37.184;2023-04-25T09:46:52;5.75;;;2.90;;
65533;SDS011;53640;55.838;37.184;2023-04-25T09:49:51;4.22;;;2.63;;
65533;SDS011;53640;55.838;37.184;2023-04-25T09:52:38;9.35;;;3.30;;
65533;SDS011;53640;55.838;37.184;2023-04-25T09:55:32;8.27;;;3.10;;
65533;SDS011;53640;55.838;37.184;2023-04-25T09:58:05;5.25;;;2.40;;
65533;SDS011;53640;55.838;37.184;2023-04-25T10:00:37;11.07;;;3.03;;
65533;SDS011;53640;55.838;37.184;2023-04-25T10:03:17;5.00;;;2.53;;
65533;SDS011;53640;55.838;37.184;2023-04-25T10:06:06;8.43;;;3.10;;
65533;SDS011;53640;55.838;37.184;2023-04-25T10:08:35;14.63;;;3.63;;
65533;SDS011;53640;55.838;37.184;2023-04-25T10:11:03;8.65;;;3.00;;
65533;SDS011;53640;55.838;37.184;2023-04-25T10:13:31;3.83;;;2.53;;
65533;SDS011;53640;55.838;37.184;2023-04-25T10:15:59;5.20;;;2.60;;
65533;SDS011;53640;55.838;37.184;2023-04-25T10:18:28;6.30;;;2.53;;
65533;SDS011;53640;55.838;37.184;2023-04-25T10:20:56;5.28;;;2.88;;
65533;SDS011;53640;55.838;37.184;2023-04-25T10:23:25;7.88;;;2.80;;
65533;SDS011;53640;55.838;37.184;2023-04-25T10:25:52;5.95;;;2.40;;
65533;SDS011;53640;55.838;37.184;2023-04-25T10:28:21;3.55;;;2.40;;
65533;SDS011;53640;55.838;37.184;2023-04-25T10:30:57;2.63;;;2.42;;
65533;SDS011;53640;55.838;37.184;2023-04-25T10:33:32;2.65;;;2.40;;
65533;SDS011;53640;55.838;37.184;2023-04-25T10:38:36;4.00;;;1.65;;
65533;SDS011;53640;55.838;37.184;2023-04-25T10:41:07;1.60;;;1.50;;
65533;SDS011;53640;55.838;37.184;2023-04-25T10:46:25;6.80;;;2.55;;
65533;SDS011;53640;55.838;37.184;2023-04-25T10:48:56;3.95;;;2.10;;
65533;SDS011;53640;55.838;37.184;2023-04-25T10:51:25;7.10;;;2.92;;
65533;SDS011;53640;55.838;37.184;2023-04-25T10:56:27;4.75;;;3.10;;
65533;SDS011;53640;55.838;37.184;2023-04-25T10:59:10;7.38;;;3.47;;
65533;SDS011;53640;55.838;37.184;2023-04-25T11:01:40;4.93;;;2.38;;
65533;SDS011;53640;55.838;37.184;2023-04-25T11:12:55;8.45;;;2.45;;
65533;SDS011;53640;55.838;37.184;2023-04-25T11:15:24;4.53;;;2.08;;
65533;SDS011;53640;55.838;37.184;2023-04-25T11:17:58;5.05;;;2.47;;
65533;SDS011;53640;55.838;37.184;2023-04-25T11:20:43;4.28;;;2.85;;
65533;SDS011;53640;55.838;37.184;2023-04-25T11:23:10;3.08;;;2.38;;
65533;SDS011;53640;55.838;37.184;2023-04-25T11:25:41;4.20;;;2.40;;
65533;SDS011;53640;55.838;37.184;2023-04-25T11:28:08;2.45;;;2.17;;
65533;SDS011;53640;55.838;37.184;2023-04-25T11:30:35;5.32;;;2.70;;
65533;SDS011;53640;55.838;37.184;2023-04-25T11:33:01;6.10;;;2.80;;
65533;SDS011;53640;55.838;37.184;2023-04-25T11:35:29;4.68;;;3.80;;
65533;SDS011;53640;55.838;37.184;2023-04-25T11:37:58;4.57;;;3.88;;
65533;SDS011;53640;55.838;37.184;2023-04-25T11:40:25;5.35;;;3.22;;
65533;SDS011;53640;55.838;37.184;2023-04-25T11:42:52;4.57;;;2.83;;
65533;SDS011;53640;55.838;37.184;2023-04-25T11:45:20;4.70;;;3.42;;
65533;SDS011;53640;55.838;37.184;2023-04-25T11:47:48;5.30;;;2.88;;
65533;SDS011;53640;55.838;37.184;2023-04-25T11:50:15;3.72;;;3.00;;
65533;SDS011;53640;55.838;37.184;2023-04-25T11:52:43;6.35;;;2.92;;
65533;SDS011;53640;55.838;37.184;2023-04-25T11:55:17;3.40;;;3.10;;
65533;SDS011;53640;55.838;37.184;2023-04-25T11:57:47;4.25;;;2.72;;
65533;SDS011;53640;55.838;37.184;2023-04-25T12:00:17;2.90;;;2.25;;
65533;SDS011;53640;55.838;37.184;2023-04-25T12:02:52;7.45;;;3.00;;
65533;SDS011;53640;55.838;37.184;2023-04-25T12:07:49;4.88;;;2.47;;
65533;SDS011;53640;55.838;37.184;2023-04-25T12:10:16;4.13;;;2.30;;
65533;SDS011;53640;55.838;37.184;2023-04-25T12:12:45;2.80;;;2.10;;
65533;SDS011;53640;55.838;37.184;2023-04-25T12:17:42;2.92;;;2.00;;
65533;SDS011;53640;55.838;37.184;2023-04-25T12:20:16;2.90;;;1.75;;
65533;SDS011;53640;55.838;37.184;2023-04-25T12:22:45;4.85;;;2.08;;
65533;SDS011;53640;55.838;37.184;2023-04-25T12:31:00;3.92;;;2.60;;
65533;SDS011;53640;55.838;37.184;2023-04-25T12:33:30;5.97;;;2.78;;
65533;SDS011;53640;55.838;37.184;2023-04-25T12:36:02;5.18;;;2.90;;
65533;SDS011;53640;55.838;37.184;2023-04-25T12:38:36;3.22;;;2.35;;
65533;SDS011;53640;55.838;37.184;2023-04-25T12:41:06;3.75;;;2.03;;
65533;SDS011;53640;55.838;37.184;2023-04-25T12:43:33;7.25;;;2.70;;
65533;SDS011;53640;55.838;37.184;2023-04-25T12:45:59;5.13;;;2.30;;
65533;SDS011;53640;55.838;37.184;2023-04-25T12:48:26;5.68;;;2.22;;
65533;SDS011;53640;55.838;37.184;2023-04-25T12:50:53;7.78;;;2.53;;
65533;SDS011;53640;55.838;37.184;2023-04-25T12:53:19;7.55;;;2.10;;
65533;SDS011;53640;55.838;37.184;2023-04-25T12:55:54;3.45;;;2.70;;
65533;SDS011;53640;55.838;37.184;2023-04-25T12:58:26;2.53;;;2.27;;
65533;SDS011;53640;55.838;37.184;2023-04-25T13:00:52;4.30;;;2.20;;
65533;SDS011;53640;55.838;37.184;2023-04-25T13:03:28;11.85;;;2.53;;
65533;SDS011;53640;55.838;37.184;2023-04-25T13:05:54;3.28;;;2.35;;
65533;SDS011;53640;55.838;37.184;2023-04-25T13:08:21;3.72;;;2.40;;
65533;SDS011;53640;55.838;37.184;2023-04-25T13:10:48;3.88;;;1.90;;
65533;SDS011;53640;55.838;37.184;2023-04-25T13:13:15;3.55;;;2.10;;
65533;SDS011;53640;55.838;37.184;2023-04-25T13:15:52;3.97;;;2.25;;
65533;SDS011;53640;55.838;37.184;2023-04-25T13:18:22;2.65;;;2.05;;
65533;SDS011;53640;55.838;37.184;2023-04-25T13:20:52;3.15;;;2.10;;
65533;SDS011;53640;55.838;37.184;2023-04-25T13:23:20;3.30;;;2.30;;
65533;SDS011;53640;55.838;37.184;2023-04-25T13:25:47;7.82;;;2.30;;
65533;SDS011;53640;55.838;37.184;2023-04-25T13:28:14;2.30;;;2.10;;
65533;SDS011;53640;55.838;37.184;2023-04-25T13:30:41;2.38;;;2.17;;
65533;SDS011;53640;55.838;37.184;2023-04-25T13:33:10;2.90;;;2.08;;
65533;SDS011;53640;55.838;37.184;2023-04-25T13:35:37;3.60;;;2.30;;
65533;SDS011;53640;55.838;37.184;2023-04-25T13:38:04;4.60;;;2.10;;
65533;SDS011;53640;55.838;37.184;2023-04-25T13:40:31;6.55;;;2.97;;
65533;SDS011;53640;55.838;37.184;2023-04-25T13:42:59;4.13;;;2.10;;
65533;SDS011;53640;55.838;37.184;2023-04-25T13:45:26;8.95;;;2.58;;
65533;SDS011;53640;55.838;37.184;2023-04-25T13:47:52;3.67;;;1.88;;
65533;SDS011;53640;55.838;37.184;2023-04-25T13:50:19;3.75;;;2.28;;
65533;SDS011;53640;55.838;37.184;2023-04-25T13:52:46;5.25;;;2.22;;
65533;SDS011;53640;55.838;37.184;2023-04-25T13:55:12;2.63;;;1.90;;
65533;SDS011;53640;55.838;37.184;2023-04-25T13:57:39;2.97;;;2.08;;
65533;SDS011;53640;55.838;37.184;2023-04-25T14:00:05;6.05;;;2.13;;
65533;SDS011;53640;55.838;37.184;2023-04-25T14:02:35;6.20;;;2.28;;
65533;SDS011;53640;55.838;37.184;2023-04-25T14:05:03;4.22;;;2.30;;
65533;SDS011;53640;55.838;37.184;2023-04-25T14:07:33;2.20;;;1.92;;
65533;SDS011;53640;55.838;37.184;2023-04-25T14:10:01;5.20;;;2.20;;
65533;SDS011;53640;55.838;37.184;2023-04-25T14:12:31;5.53;;;2.28;;
65533;SDS011;53640;55.838;37.184;2023-04-25T14:14:59;2.47;;;2.20;;
65533;SDS011;53640;55.838;37.184;2023-04-25T14:17:26;9.02;;;3.20;;
65533;SDS011;53640;55.838;37.184;2023-04-25T14:19:52;2.65;;;2.17;;
65533;SDS011;53640;55.838;37.184;2023-04-25T14:22:19;5.45;;;2.60;;
65533;SDS011;53640;55.838;37.184;2023-04-25T14:24:48;2.72;;;2.03;;
65533;SDS011;53640;55.838;37.184;2023-04-25T14:27:14;8.52;;;1.90;;
65533;SDS011;53640;55.838;37.184;2023-04-25T14:29:41;9.95;;;1.80;;
65533;SDS011;53640;55.838;37.184;2023-04-25T14:32:08;2.90;;;2.10;;
65533;SDS011;53640;55.838;37.184;2023-04-25T14:34:36;5.63;;;2.10;;
65533;SDS011;53640;55.838;37.184;2023-04-25T14:37:02;5.03;;;2.28;;
65533;SDS011;53640;55.838;37.184;2023-04-25T14:39:29;4.00;;;2.20;;
65533;SDS011;53640;55.838;37.184;2023-04-25T14:41:58;5.85;;;2.75;;
65533;SDS011;53640;55.838;37.184;2023-04-25T14:44:25;4.28;;;2.72;;
65533;SDS011;53640;55.838;37.184;2023-04-25T14:46:51;15.90;;;7.07;;
65533;SDS011;53640;55.838;37.184;2023-04-25T14:49:19;10.20;;;4.25;;
65533;SDS011;53640;55.838;37.184;2023-04-25T14:51:48;7.57;;;2.97;;
65533;SDS011;53640;55.838;37.184;2023-04-25T14:54:18;4.22;;;2.50;;
65533;SDS011;53640;55.838;37.184;2023-04-25T14:56:45;3.78;;;2.47;;
65533;SDS011;53640;55.838;37.184;2023-04-25T14:59:15;3.08;;;2.50;;
65533;SDS011;53640;55.838;37.184;2023-04-25T15:01:48;4.88;;;2.60;;
65533;SDS011;53640;55.838;37.184;2023-04-25T15:04:16;6.53;;;2.60;;
65533;SDS011;53640;55.838;37.184;2023-04-25T15:06:43;5.55;;;2.42;;
65533;SDS011;53640;55.838;37.184;2023-04-25T15:09:09;2.92;;;2.20;;
65533;SDS011;53640;55.838;37.184;2023-04-25T15:11:36;2.88;;;2.03;;
65533;SDS011;53640;55.838;37.184;2023-04-25T15:14:06;2.80;;;2.30;;
65533;SDS011;53640;55.838;37.184;2023-04-25T15:16:45;2.53;;;2.17;;
65533;SDS011;53640;55.838;37.184;2023-04-25T15:19:50;1.80;;;1.70;;
65533;SDS011;53640;55.838;37.184;2023-04-25T15:23:12;3.13;;;2.17;;
65533;SDS011;53640;55.838;37.184;2023-04-25T15:25:53;6.18;;;2.83;;
65533;SDS011;53640;55.838;37.184;2023-04-25T15:28:23;7.45;;;2.50;;
65533;SDS011;53640;55.838;37.184;2023-04-25T15:30:54;5.15;;;2.53;;
65533;SDS011;53640;55.838;37.184;2023-04-25T15:33:28;8.18;;;2.30;;
65533;SDS011;53640;55.838;37.184;2023-04-25T15:35:59;4.90;;;2.42;;
65533;SDS011;53640;55.838;37.184;2023-04-25T15:38:31;5.40;;;2.22;;
65533;SDS011;53640;55.838;37.184;2023-04-25T15:41:18;7.18;;;2.45;;
65533;SDS011;53640;55.838;37.184;2023-04-25T15:43:59;3.58;;;2.22;;
65533;SDS011;53640;55.838;37.184;2023-04-25T15:46:44;11.30;;;2.70;;
65533;SDS011;53640;55.838;37.184;2023-04-25T15:49:17;6.18;;;2.50;;
65533;SDS011;53640;55.838;37.184;2023-04-25T15:51:49;5.20;;;3.15;;
65533;SDS011;53640;55.838;37.184;2023-04-25T15:54:19;8.48;;;3.30;;
65533;SDS011;53640;55.838;37.184;2023-04-25T15:56:56;4.10;;;2.67;;
65533;SDS011;53640;55.838;37.184;2023-04-25T15:59:24;3.25;;;2.38;;
65533;SDS011;53640;55.838;37.184;2023-04-25T16:02:11;8.15;;;2.50;;
65533;SDS011;53640;55.838;37.184;2023-04-25T16:04:47;9.85;;;2.75;;
65533;SDS011;53640;55.838;37.184;2023-04-25T16:07:16;10.23;;;3.38;;
65533;SDS011;53640;55.838;37.184;2023-04-25T16:09:43;7.43;;;3.28;;
65533;SDS011;53640;55.838;37.184;2023-04-25T16:12:14;6.35;;;2.65;;
65533;SDS011;53640;55.838;37.184;2023-04-25T16:14:42;3.38;;;2.33;;
65533;SDS011;53640;55.838;37.184;2023-04-25T16:17:13;2.95;;;2.25;;
65533;SDS011;53640;55.838;37.184;2023-04-25T16:19:42;5.10;;;2.70;;